Aledo, IL

11:32 AM CST on February 08, 2016 (GMT -0600)
KILALEDO2 | | Change Station
CLOSE
Current Station
Personal Weather Station
Location: Aledo, IL
Elevation: 735 ft
Nearby Weather Stations

Elev 735 ft 41.20 °N, 90.76 °W | Updated 2 seconds ago

Snow
Snow
22.6 °F
Feels Like 14 °F
N
6.9
Wind Variable Wind from WNW
Gusts 6.9 mph

Today
High -- | Low -- °F
--% Chance of Precip.
Yesterday
High -- | Low -- °F
Precip. -- in
Pressure 29.82 in
Visibility 4.0 miles
Clouds Overcast 2500 ft
Windchill 14 °F
Dew Point 14 °F
Humidity 68%
Rainfall 0.00 in
Snow Depth Not available.
7:06 AM 5:27 PM
New Moon, 0% visible
METAR KMLI 081652Z 31016KT 4SM -SN OVC025 M06/M11 A2980 RMK AO2 PK WND 31026/1610 SLP098 P0000 T10611106
Pressure 29.82 in
Visibility 4.0 miles
Clouds Overcast 2500 ft
Windchill 14 °F
Dew Point 14 °F
Humidity 68%
Rainfall 0.00 in
Snow Depth Not available.
7:06 AM 5:27 PM
New Moon, 0% visible
METAR KMLI 081652Z 31016KT 4SM -SN OVC025 M06/M11 A2980 RMK AO2 PK WND 31026/1610 SLP098 P0000 T10611106

10-Day Weather Forecast

Almanac

Astronomy

Feb. 08, 2016 Rise Set
Actual Time
Civil Twilight
Nautical Twilight
Astronomical Twilight
Moon
Length of Visible Light
Length of Day
Tomorrow will be .
, % of the Moon is Illuminated

Today's Extremes

State Highs State Lows

Community

WunderPhotos

Upload Photos

1,891,473 photos uploaded!

WunderBlog® & News

Nearby

Air Quality

  Air Quality AQ Index Pollutant
Not available.

Snow Depth

Station Depth Elevation

Earthquake Activity

City Distance Mag. Time & Date
Minimum magnitude displayed is 2.5.

Coastal Water Temperatures

Place Temperature

Stations

Nearby Weather Stations

Station Location Temp. Windchill Dew Point Humidity Wind Precip. Elev Updated Type
                   

Watches & Warnings

There are currently no watches in effect.